sensor_id;sensor_type;location;lat;lon;timestamp;P1;durP1;ratioP1;P2;durP2;ratioP2
10094;SDS011;5086;50.830;7.102;2023-06-26T00:00:53;13.67;;;7.90;;
10094;SDS011;5086;50.830;7.102;2023-06-26T00:03:20;11.47;;;7.10;;
10094;SDS011;5086;50.830;7.102;2023-06-26T00:05:48;11.80;;;6.80;;
10094;SDS011;5086;50.830;7.102;2023-06-26T00:08:15;12.47;;;6.83;;
10094;SDS011;5086;50.830;7.102;2023-06-26T00:10:42;10.07;;;6.33;;
10094;SDS011;5086;50.830;7.102;2023-06-26T00:13:11;12.47;;;7.30;;
10094;SDS011;5086;50.830;7.102;2023-06-26T00:15:38;11.03;;;7.10;;
10094;SDS011;5086;50.830;7.102;2023-06-26T00:18:05;12.87;;;6.93;;
10094;SDS011;5086;50.830;7.102;2023-06-26T00:20:32;9.50;;;6.50;;
10094;SDS011;5086;50.830;7.102;2023-06-26T00:22:59;8.73;;;6.73;;
10094;SDS011;5086;50.830;7.102;2023-06-26T00:25:26;11.27;;;7.20;;
10094;SDS011;5086;50.830;7.102;2023-06-26T00:27:53;11.03;;;6.80;;
10094;SDS011;5086;50.830;7.102;2023-06-26T00:30:21;11.90;;;7.40;;
10094;SDS011;5086;50.830;7.102;2023-06-26T00:32:51;12.77;;;7.57;;
10094;SDS011;5086;50.830;7.102;2023-06-26T00:35:17;16.33;;;7.27;;
10094;SDS011;5086;50.830;7.102;2023-06-26T00:37:44;11.00;;;7.30;;
10094;SDS011;5086;50.830;7.102;2023-06-26T00:40:12;12.67;;;6.80;;
10094;SDS011;5086;50.830;7.102;2023-06-26T00:42:39;11.07;;;7.50;;
10094;SDS011;5086;50.830;7.102;2023-06-26T00:45:06;10.43;;;6.47;;
10094;SDS011;5086;50.830;7.102;2023-06-26T00:47:34;11.50;;;5.97;;
10094;SDS011;5086;50.830;7.102;2023-06-26T00:50:03;10.30;;;7.00;;
10094;SDS011;5086;50.830;7.102;2023-06-26T00:52:31;10.80;;;6.73;;
10094;SDS011;5086;50.830;7.102;2023-06-26T00:54:58;11.23;;;7.00;;
10094;SDS011;5086;50.830;7.102;2023-06-26T00:57:25;9.37;;;6.30;;
10094;SDS011;5086;50.830;7.102;2023-06-26T00:59:53;10.37;;;7.10;;
10094;SDS011;5086;50.830;7.102;2023-06-26T01:02:20;10.47;;;6.83;;
10094;SDS011;5086;50.830;7.102;2023-06-26T01:04:48;11.67;;;7.20;;
10094;SDS011;5086;50.830;7.102;2023-06-26T01:07:16;10.63;;;7.00;;
10094;SDS011;5086;50.830;7.102;2023-06-26T01:09:45;11.27;;;7.27;;
10094;SDS011;5086;50.830;7.102;2023-06-26T01:12:13;12.07;;;7.50;;
10094;SDS011;5086;50.830;7.102;2023-06-26T01:14:40;13.43;;;8.47;;
10094;SDS011;5086;50.830;7.102;2023-06-26T01:17:07;18.53;;;8.57;;
10094;SDS011;5086;50.830;7.102;2023-06-26T01:19:36;12.53;;;7.07;;
10094;SDS011;5086;50.830;7.102;2023-06-26T01:22:09;12.00;;;7.77;;
10094;SDS011;5086;50.830;7.102;2023-06-26T01:24:44;14.80;;;7.70;;
10094;SDS011;5086;50.830;7.102;2023-06-26T01:27:20;11.70;;;7.30;;
10094;SDS011;5086;50.830;7.102;2023-06-26T01:29:49;18.10;;;8.07;;
10094;SDS011;5086;50.830;7.102;2023-06-26T01:32:17;12.00;;;7.10;;
10094;SDS011;5086;50.830;7.102;2023-06-26T01:34:45;13.73;;;7.97;;
10094;SDS011;5086;50.830;7.102;2023-06-26T01:37:12;11.80;;;6.70;;
10094;SDS011;5086;50.830;7.102;2023-06-26T01:39:39;11.10;;;7.07;;
10094;SDS011;5086;50.830;7.102;2023-06-26T01:42:07;12.17;;;7.60;;
10094;SDS011;5086;50.830;7.102;2023-06-26T01:44:37;11.97;;;7.43;;
10094;SDS011;5086;50.830;7.102;2023-06-26T01:47:09;12.27;;;6.67;;
10094;SDS011;5086;50.830;7.102;2023-06-26T01:49:47;12.20;;;7.57;;
10094;SDS011;5086;50.830;7.102;2023-06-26T01:52:18;11.70;;;6.83;;
10094;SDS011;5086;50.830;7.102;2023-06-26T01:54:58;14.27;;;7.80;;
10094;SDS011;5086;50.830;7.102;2023-06-26T01:57:29;12.53;;;7.97;;
10094;SDS011;5086;50.830;7.102;2023-06-26T01:59:58;10.17;;;7.10;;
10094;SDS011;5086;50.830;7.102;2023-06-26T02:02:27;10.60;;;7.07;;
10094;SDS011;5086;50.830;7.102;2023-06-26T02:04:55;12.10;;;7.50;;
10094;SDS011;5086;50.830;7.102;2023-06-26T02:07:22;14.37;;;6.97;;
10094;SDS011;5086;50.830;7.102;2023-06-26T02:09:49;12.33;;;7.17;;
10094;SDS011;5086;50.830;7.102;2023-06-26T02:12:16;10.00;;;6.90;;
10094;SDS011;5086;50.830;7.102;2023-06-26T02:14:43;11.57;;;7.10;;
10094;SDS011;5086;50.830;7.102;2023-06-26T02:17:12;12.50;;;7.70;;
10094;SDS011;5086;50.830;7.102;2023-06-26T02:19:39;17.23;;;8.10;;
10094;SDS011;5086;50.830;7.102;2023-06-26T02:22:12;11.03;;;7.00;;
10094;SDS011;5086;50.830;7.102;2023-06-26T02:24:39;13.30;;;7.10;;
10094;SDS011;5086;50.830;7.102;2023-06-26T02:27:06;11.47;;;6.93;;
10094;SDS011;5086;50.830;7.102;2023-06-26T02:29:33;13.67;;;7.40;;
10094;SDS011;5086;50.830;7.102;2023-06-26T02:32:00;11.07;;;6.77;;
10094;SDS011;5086;50.830;7.102;2023-06-26T02:34:28;14.67;;;7.20;;
10094;SDS011;5086;50.830;7.102;2023-06-26T02:36:55;10.93;;;6.90;;
10094;SDS011;5086;50.830;7.102;2023-06-26T02:39:23;12.67;;;7.50;;
10094;SDS011;5086;50.830;7.102;2023-06-26T02:41:51;12.23;;;6.97;;
10094;SDS011;5086;50.830;7.102;2023-06-26T02:44:17;14.10;;;6.63;;
10094;SDS011;5086;50.830;7.102;2023-06-26T02:46:46;14.67;;;7.70;;
10094;SDS011;5086;50.830;7.102;2023-06-26T02:49:13;14.00;;;7.13;;
10094;SDS011;5086;50.830;7.102;2023-06-26T02:51:41;13.77;;;7.43;;
10094;SDS011;5086;50.830;7.102;2023-06-26T02:54:09;13.13;;;8.63;;
10094;SDS011;5086;50.830;7.102;2023-06-26T02:56:36;12.10;;;7.37;;
10094;SDS011;5086;50.830;7.102;2023-06-26T02:59:03;11.23;;;6.73;;
10094;SDS011;5086;50.830;7.102;2023-06-26T03:01:30;12.30;;;7.23;;
10094;SDS011;5086;50.830;7.102;2023-06-26T03:03:57;17.13;;;8.10;;
10094;SDS011;5086;50.830;7.102;2023-06-26T03:06:25;10.67;;;6.87;;
10094;SDS011;5086;50.830;7.102;2023-06-26T03:08:53;11.90;;;7.23;;
10094;SDS011;5086;50.830;7.102;2023-06-26T03:11:20;13.27;;;7.90;;
10094;SDS011;5086;50.830;7.102;2023-06-26T03:13:47;11.10;;;7.10;;
10094;SDS011;5086;50.830;7.102;2023-06-26T03:16:14;10.53;;;7.00;;
10094;SDS011;5086;50.830;7.102;2023-06-26T03:18:41;14.43;;;7.27;;
10094;SDS011;5086;50.830;7.102;2023-06-26T03:21:08;9.80;;;6.70;;
10094;SDS011;5086;50.830;7.102;2023-06-26T03:23:35;11.67;;;7.50;;
10094;SDS011;5086;50.830;7.102;2023-06-26T03:26:03;11.70;;;7.40;;
10094;SDS011;5086;50.830;7.102;2023-06-26T03:28:30;13.47;;;6.93;;
10094;SDS011;5086;50.830;7.102;2023-06-26T03:30:57;14.27;;;7.30;;
10094;SDS011;5086;50.830;7.102;2023-06-26T03:33:24;13.17;;;6.90;;
10094;SDS011;5086;50.830;7.102;2023-06-26T03:35:51;12.83;;;6.27;;
10094;SDS011;5086;50.830;7.102;2023-06-26T03:38:18;9.83;;;6.90;;
10094;SDS011;5086;50.830;7.102;2023-06-26T03:40:45;12.57;;;6.67;;
10094;SDS011;5086;50.830;7.102;2023-06-26T03:43:14;9.43;;;6.10;;
10094;SDS011;5086;50.830;7.102;2023-06-26T03:45:41;11.30;;;6.50;;
10094;SDS011;5086;50.830;7.102;2023-06-26T03:48:08;10.13;;;6.67;;
10094;SDS011;5086;50.830;7.102;2023-06-26T03:50:35;12.57;;;6.90;;
10094;SDS011;5086;50.830;7.102;2023-06-26T03:53:01;11.20;;;6.63;;
10094;SDS011;5086;50.830;7.102;2023-06-26T03:55:28;13.57;;;7.00;;
10094;SDS011;5086;50.830;7.102;2023-06-26T03:57:55;9.00;;;6.67;;
10094;SDS011;5086;50.830;7.102;2023-06-26T04:00:23;11.70;;;7.20;;
10094;SDS011;5086;50.830;7.102;2023-06-26T04:02:50;10.47;;;6.97;;
10094;SDS011;5086;50.830;7.102;2023-06-26T04:05:17;11.27;;;6.67;;
10094;SDS011;5086;50.830;7.102;2023-06-26T04:07:44;11.67;;;6.60;;
10094;SDS011;5086;50.830;7.102;2023-06-26T04:10:11;9.63;;;6.10;;
10094;SDS011;5086;50.830;7.102;2023-06-26T04:12:38;13.90;;;6.37;;
10094;SDS011;5086;50.830;7.102;2023-06-26T04:15:06;10.90;;;6.37;;
10094;SDS011;5086;50.830;7.102;2023-06-26T04:17:35;9.90;;;6.00;;
10094;SDS011;5086;50.830;7.102;2023-06-26T04:20:03;10.67;;;5.40;;
10094;SDS011;5086;50.830;7.102;2023-06-26T04:22:32;11.13;;;5.30;;
10094;SDS011;5086;50.830;7.102;2023-06-26T04:25:00;22.43;;;5.83;;
10094;SDS011;5086;50.830;7.102;2023-06-26T04:27:29;9.37;;;6.10;;
10094;SDS011;5086;50.830;7.102;2023-06-26T04:29:56;8.27;;;5.80;;
10094;SDS011;5086;50.830;7.102;2023-06-26T04:32:23;11.00;;;5.80;;
10094;SDS011;5086;50.830;7.102;2023-06-26T04:34:52;7.63;;;5.30;;
10094;SDS011;5086;50.830;7.102;2023-06-26T04:37:19;8.00;;;5.70;;
10094;SDS011;5086;50.830;7.102;2023-06-26T04:39:46;10.80;;;5.60;;
10094;SDS011;5086;50.830;7.102;2023-06-26T04:42:12;9.60;;;5.97;;
10094;SDS011;5086;50.830;7.102;2023-06-26T04:44:39;8.30;;;5.27;;
10094;SDS011;5086;50.830;7.102;2023-06-26T04:47:07;7.27;;;4.97;;
10094;SDS011;5086;50.830;7.102;2023-06-26T04:49:34;11.57;;;6.23;;
10094;SDS011;5086;50.830;7.102;2023-06-26T04:52:03;6.73;;;4.90;;
10094;SDS011;5086;50.830;7.102;2023-06-26T04:54:30;6.80;;;5.07;;
10094;SDS011;5086;50.830;7.102;2023-06-26T04:56:57;9.50;;;5.17;;
10094;SDS011;5086;50.830;7.102;2023-06-26T04:59:24;9.40;;;5.97;;
10094;SDS011;5086;50.830;7.102;2023-06-26T05:01:51;8.03;;;4.67;;
10094;SDS011;5086;50.830;7.102;2023-06-26T05:04:18;11.10;;;5.00;;
10094;SDS011;5086;50.830;7.102;2023-06-26T05:06:45;14.00;;;5.50;;
10094;SDS011;5086;50.830;7.102;2023-06-26T05:09:13;9.30;;;4.80;;
10094;SDS011;5086;50.830;7.102;2023-06-26T05:11:40;8.40;;;4.90;;
10094;SDS011;5086;50.830;7.102;2023-06-26T05:14:07;8.90;;;4.70;;
10094;SDS011;5086;50.830;7.102;2023-06-26T05:16:34;8.60;;;4.80;;
10094;SDS011;5086;50.830;7.102;2023-06-26T05:19:01;12.23;;;5.80;;
10094;SDS011;5086;50.830;7.102;2023-06-26T05:21:28;7.80;;;4.23;;
10094;SDS011;5086;50.830;7.102;2023-06-26T05:23:56;13.80;;;4.90;;
10094;SDS011;5086;50.830;7.102;2023-06-26T05:26:26;7.43;;;4.63;;
10094;SDS011;5086;50.830;7.102;2023-06-26T05:28:54;8.37;;;4.33;;
10094;SDS011;5086;50.830;7.102;2023-06-26T05:31:21;7.60;;;4.80;;
10094;SDS011;5086;50.830;7.102;2023-06-26T05:33:49;7.70;;;4.77;;
10094;SDS011;5086;50.830;7.102;2023-06-26T05:36:17;8.73;;;5.37;;
10094;SDS011;5086;50.830;7.102;2023-06-26T05:38:45;6.90;;;4.00;;
10094;SDS011;5086;50.830;7.102;2023-06-26T05:41:13;7.70;;;4.53;;
10094;SDS011;5086;50.830;7.102;2023-06-26T05:43:42;12.60;;;4.90;;
10094;SDS011;5086;50.830;7.102;2023-06-26T05:46:09;10.20;;;5.00;;
10094;SDS011;5086;50.830;7.102;2023-06-26T05:48:36;11.37;;;4.47;;
10094;SDS011;5086;50.830;7.102;2023-06-26T05:51:07;11.73;;;4.80;;
10094;SDS011;5086;50.830;7.102;2023-06-26T05:53:49;6.10;;;4.10;;
10094;SDS011;5086;50.830;7.102;2023-06-26T05:56:17;6.07;;;4.10;;
10094;SDS011;5086;50.830;7.102;2023-06-26T05:58:46;9.43;;;4.40;;
10094;SDS011;5086;50.830;7.102;2023-06-26T06:01:13;9.97;;;4.17;;
10094;SDS011;5086;50.830;7.102;2023-06-26T06:03:40;5.20;;;3.83;;
10094;SDS011;5086;50.830;7.102;2023-06-26T06:06:07;6.87;;;4.27;;
10094;SDS011;5086;50.830;7.102;2023-06-26T06:08:34;10.53;;;4.77;;
10094;SDS011;5086;50.830;7.102;2023-06-26T06:11:02;8.73;;;4.60;;
10094;SDS011;5086;50.830;7.102;2023-06-26T06:13:28;8.20;;;4.23;;
10094;SDS011;5086;50.830;7.102;2023-06-26T06:15:57;7.30;;;4.20;;
10094;SDS011;5086;50.830;7.102;2023-06-26T06:18:24;7.30;;;4.03;;
10094;SDS011;5086;50.830;7.102;2023-06-26T06:20:51;10.90;;;5.03;;
10094;SDS011;5086;50.830;7.102;2023-06-26T06:23:18;7.20;;;3.87;;
10094;SDS011;5086;50.830;7.102;2023-06-26T06:25:45;11.50;;;4.73;;
10094;SDS011;5086;50.830;7.102;2023-06-26T06:28:11;5.20;;;3.33;;
10094;SDS011;5086;50.830;7.102;2023-06-26T06:30:41;7.47;;;3.70;;
10094;SDS011;5086;50.830;7.102;2023-06-26T06:33:09;15.07;;;4.20;;
10094;SDS011;5086;50.830;7.102;2023-06-26T06:35:36;6.73;;;3.00;;
10094;SDS011;5086;50.830;7.102;2023-06-26T06:38:03;6.83;;;3.53;;
10094;SDS011;5086;50.830;7.102;2023-06-26T06:40:30;6.43;;;3.60;;
10094;SDS011;5086;50.830;7.102;2023-06-26T06:42:57;7.33;;;3.93;;
10094;SDS011;5086;50.830;7.102;2023-06-26T06:45:24;11.57;;;4.87;;
10094;SDS011;5086;50.830;7.102;2023-06-26T06:47:51;8.30;;;3.80;;
10094;SDS011;5086;50.830;7.102;2023-06-26T06:50:19;10.83;;;3.90;;
10094;SDS011;5086;50.830;7.102;2023-06-26T06:52:46;5.67;;;3.67;;
10094;SDS011;5086;50.830;7.102;2023-06-26T06:55:13;8.40;;;3.93;;
10094;SDS011;5086;50.830;7.102;2023-06-26T06:57:40;10.03;;;3.70;;
10094;SDS011;5086;50.830;7.102;2023-06-26T07:00:07;9.17;;;3.90;;
10094;SDS011;5086;50.830;7.102;2023-06-26T07:02:36;8.13;;;3.70;;
10094;SDS011;5086;50.830;7.102;2023-06-26T07:05:03;8.50;;;3.53;;
10094;SDS011;5086;50.830;7.102;2023-06-26T07:07:32;7.43;;;3.40;;
10094;SDS011;5086;50.830;7.102;2023-06-26T07:10:03;4.80;;;3.50;;
10094;SDS011;5086;50.830;7.102;2023-06-26T07:12:31;8.83;;;3.67;;
10094;SDS011;5086;50.830;7.102;2023-06-26T07:15:03;5.27;;;3.20;;
10094;SDS011;5086;50.830;7.102;2023-06-26T07:17:34;6.70;;;3.10;;
10094;SDS011;5086;50.830;7.102;2023-06-26T07:20:03;13.90;;;3.83;;
10094;SDS011;5086;50.830;7.102;2023-06-26T07:22:36;10.27;;;4.10;;
10094;SDS011;5086;50.830;7.102;2023-06-26T07:25:04;7.03;;;3.63;;
10094;SDS011;5086;50.830;7.102;2023-06-26T07:27:34;5.70;;;3.43;;
10094;SDS011;5086;50.830;7.102;2023-06-26T07:30:00;6.50;;;3.50;;
10094;SDS011;5086;50.830;7.102;2023-06-26T07:32:27;8.33;;;3.53;;
10094;SDS011;5086;50.830;7.102;2023-06-26T07:34:54;8.80;;;3.50;;
10094;SDS011;5086;50.830;7.102;2023-06-26T07:37:21;9.23;;;3.47;;
10094;SDS011;5086;50.830;7.102;2023-06-26T07:39:49;8.30;;;3.47;;
10094;SDS011;5086;50.830;7.102;2023-06-26T07:42:16;6.70;;;3.70;;
10094;SDS011;5086;50.830;7.102;2023-06-26T07:44:43;8.70;;;3.97;;
10094;SDS011;5086;50.830;7.102;2023-06-26T07:47:10;7.67;;;4.20;;
10094;SDS011;5086;50.830;7.102;2023-06-26T07:49:37;10.30;;;4.10;;
10094;SDS011;5086;50.830;7.102;2023-06-26T07:52:05;10.77;;;4.50;;
10094;SDS011;5086;50.830;7.102;2023-06-26T07:54:35;5.47;;;3.80;;
10094;SDS011;5086;50.830;7.102;2023-06-26T07:57:04;11.93;;;4.97;;
10094;SDS011;5086;50.830;7.102;2023-06-26T07:59:31;9.23;;;5.03;;
10094;SDS011;5086;50.830;7.102;2023-06-26T08:01:59;8.03;;;4.70;;
10094;SDS011;5086;50.830;7.102;2023-06-26T08:04:26;12.70;;;4.87;;
10094;SDS011;5086;50.830;7.102;2023-06-26T08:06:55;9.20;;;4.70;;
10094;SDS011;5086;50.830;7.102;2023-06-26T08:09:24;32.37;;;6.03;;
10094;SDS011;5086;50.830;7.102;2023-06-26T08:11:52;13.07;;;5.73;;
10094;SDS011;5086;50.830;7.102;2023-06-26T08:14:20;13.27;;;5.40;;
10094;SDS011;5086;50.830;7.102;2023-06-26T08:16:48;12.07;;;4.80;;
10094;SDS011;5086;50.830;7.102;2023-06-26T08:19:15;15.83;;;5.57;;
10094;SDS011;5086;50.830;7.102;2023-06-26T08:21:43;22.83;;;5.70;;
10094;SDS011;5086;50.830;7.102;2023-06-26T08:24:11;13.60;;;5.00;;
10094;SDS011;5086;50.830;7.102;2023-06-26T08:26:38;14.30;;;5.27;;
10094;SDS011;5086;50.830;7.102;2023-06-26T08:29:08;8.83;;;5.23;;
10094;SDS011;5086;50.830;7.102;2023-06-26T08:31:37;11.23;;;5.17;;
10094;SDS011;5086;50.830;7.102;2023-06-26T08:34:04;9.67;;;4.37;;
10094;SDS011;5086;50.830;7.102;2023-06-26T08:36:32;7.20;;;4.60;;
10094;SDS011;5086;50.830;7.102;2023-06-26T08:38:59;7.40;;;4.70;;
10094;SDS011;5086;50.830;7.102;2023-06-26T08:41:26;5.43;;;4.33;;
10094;SDS011;5086;50.830;7.102;2023-06-26T08:43:53;9.60;;;4.23;;
10094;SDS011;5086;50.830;7.102;2023-06-26T08:46:21;8.00;;;4.57;;
10094;SDS011;5086;50.830;7.102;2023-06-26T08:48:52;10.80;;;4.70;;
10094;SDS011;5086;50.830;7.102;2023-06-26T08:51:23;10.93;;;4.70;;
10094;SDS011;5086;50.830;7.102;2023-06-26T08:53:52;8.50;;;4.40;;
10094;SDS011;5086;50.830;7.102;2023-06-26T08:56:22;10.30;;;4.77;;
10094;SDS011;5086;50.830;7.102;2023-06-26T08:58:50;7.53;;;4.50;;
10094;SDS011;5086;50.830;7.102;2023-06-26T09:01:18;16.27;;;4.63;;
10094;SDS011;5086;50.830;7.102;2023-06-26T09:03:45;12.03;;;4.63;;
10094;SDS011;5086;50.830;7.102;2023-06-26T09:06:13;8.10;;;4.10;;
10094;SDS011;5086;50.830;7.102;2023-06-26T09:08:40;6.60;;;4.10;;
10094;SDS011;5086;50.830;7.102;2023-06-26T09:11:07;12.60;;;4.60;;
10094;SDS011;5086;50.830;7.102;2023-06-26T09:13:34;6.30;;;4.13;;
10094;SDS011;5086;50.830;7.102;2023-06-26T09:16:04;11.37;;;4.10;;
10094;SDS011;5086;50.830;7.102;2023-06-26T09:18:33;6.60;;;3.50;;
10094;SDS011;5086;50.830;7.102;2023-06-26T09:21:00;16.87;;;4.20;;
10094;SDS011;5086;50.830;7.102;2023-06-26T09:23:35;11.33;;;4.77;;
10094;SDS011;5086;50.830;7.102;2023-06-26T09:26:02;10.07;;;3.87;;
10094;SDS011;5086;50.830;7.102;2023-06-26T09:28:30;7.10;;;3.60;;
10094;SDS011;5086;50.830;7.102;2023-06-26T09:31:00;5.93;;;3.67;;
10094;SDS011;5086;50.830;7.102;2023-06-26T09:33:32;12.27;;;3.93;;
10094;SDS011;5086;50.830;7.102;2023-06-26T09:36:01;7.27;;;3.90;;
10094;SDS011;5086;50.830;7.102;2023-06-26T09:38:31;8.80;;;4.30;;
10094;SDS011;5086;50.830;7.102;2023-06-26T09:41:00;9.17;;;3.30;;
10094;SDS011;5086;50.830;7.102;2023-06-26T09:43:27;13.07;;;4.00;;
10094;SDS011;5086;50.830;7.102;2023-06-26T09:45:56;7.50;;;3.70;;
10094;SDS011;5086;50.830;7.102;2023-06-26T09:48:23;7.60;;;3.97;;
10094;SDS011;5086;50.830;7.102;2023-06-26T09:50:50;8.37;;;3.87;;
10094;SDS011;5086;50.830;7.102;2023-06-26T09:53:17;5.27;;;3.50;;
10094;SDS011;5086;50.830;7.102;2023-06-26T09:55:46;8.33;;;4.33;;
10094;SDS011;5086;50.830;7.102;2023-06-26T09:58:14;13.33;;;3.70;;
10094;SDS011;5086;50.830;7.102;2023-06-26T10:00:43;13.83;;;3.70;;
10094;SDS011;5086;50.830;7.102;2023-06-26T10:03:10;12.90;;;4.13;;
10094;SDS011;5086;50.830;7.102;2023-06-26T10:05:38;10.17;;;3.53;;
10094;SDS011;5086;50.830;7.102;2023-06-26T10:08:05;8.37;;;4.10;;
10094;SDS011;5086;50.830;7.102;2023-06-26T10:10:33;6.00;;;3.47;;
10094;SDS011;5086;50.830;7.102;2023-06-26T10:13:05;7.80;;;3.50;;
10094;SDS011;5086;50.830;7.102;2023-06-26T10:15:40;9.10;;;3.60;;
10094;SDS011;5086;50.830;7.102;2023-06-26T10:18:09;11.80;;;3.57;;
10094;SDS011;5086;50.830;7.102;2023-06-26T10:20:38;7.00;;;3.40;;
10094;SDS011;5086;50.830;7.102;2023-06-26T10:23:05;4.00;;;3.27;;
10094;SDS011;5086;50.830;7.102;2023-06-26T10:25:34;8.50;;;3.80;;
10094;SDS011;5086;50.830;7.102;2023-06-26T10:28:05;13.20;;;3.47;;
10094;SDS011;5086;50.830;7.102;2023-06-26T10:30:35;7.37;;;3.97;;
10094;SDS011;5086;50.830;7.102;2023-06-26T10:33:05;3.70;;;2.90;;
10094;SDS011;5086;50.830;7.102;2023-06-26T10:35:33;8.90;;;3.40;;
10094;SDS011;5086;50.830;7.102;2023-06-26T10:38:06;8.83;;;3.97;;
10094;SDS011;5086;50.830;7.102;2023-06-26T10:40:41;8.70;;;3.40;;
10094;SDS011;5086;50.830;7.102;2023-06-26T10:43:08;6.50;;;3.67;;
10094;SDS011;5086;50.830;7.102;2023-06-26T10:45:38;8.47;;;3.10;;
10094;SDS011;5086;50.830;7.102;2023-06-26T10:48:12;6.60;;;3.10;;
10094;SDS011;5086;50.830;7.102;2023-06-26T10:50:40;5.40;;;2.63;;
10094;SDS011;5086;50.830;7.102;2023-06-26T10:53:08;7.87;;;3.37;;
10094;SDS011;5086;50.830;7.102;2023-06-26T10:55:36;5.30;;;2.90;;
10094;SDS011;5086;50.830;7.102;2023-06-26T10:58:04;9.80;;;3.10;;
10094;SDS011;5086;50.830;7.102;2023-06-26T11:00:30;6.40;;;2.90;;
10094;SDS011;5086;50.830;7.102;2023-06-26T11:02:58;5.43;;;2.87;;
10094;SDS011;5086;50.830;7.102;2023-06-26T11:05:28;4.00;;;2.87;;
10094;SDS011;5086;50.830;7.102;2023-06-26T11:08:05;6.83;;;2.80;;
10094;SDS011;5086;50.830;7.102;2023-06-26T11:10:51;6.63;;;2.87;;
10094;SDS011;5086;50.830;7.102;2023-06-26T11:13:20;6.60;;;3.03;;
10094;SDS011;5086;50.830;7.102;2023-06-26T11:15:58;3.60;;;2.30;;
10094;SDS011;5086;50.830;7.102;2023-06-26T11:18:30;8.97;;;2.93;;
10094;SDS011;5086;50.830;7.102;2023-06-26T11:21:05;7.53;;;2.83;;
10094;SDS011;5086;50.830;7.102;2023-06-26T11:23:36;8.73;;;2.90;;
10094;SDS011;5086;50.830;7.102;2023-06-26T11:26:13;3.00;;;2.60;;
10094;SDS011;5086;50.830;7.102;2023-06-26T11:28:48;7.47;;;3.30;;
10094;SDS011;5086;50.830;7.102;2023-06-26T11:31:25;3.50;;;2.67;;
10094;SDS011;5086;50.830;7.102;2023-06-26T11:33:56;11.00;;;2.73;;
10094;SDS011;5086;50.830;7.102;2023-06-26T11:39:07;5.43;;;2.93;;
10094;SDS011;5086;50.830;7.102;2023-06-26T11:41:35;7.00;;;3.77;;
10094;SDS011;5086;50.830;7.102;2023-06-26T11:44:03;4.57;;;2.83;;
10094;SDS011;5086;50.830;7.102;2023-06-26T11:46:31;5.10;;;2.93;;
10094;SDS011;5086;50.830;7.102;2023-06-26T11:49:00;9.83;;;3.20;;
10094;SDS011;5086;50.830;7.102;2023-06-26T11:51:29;4.30;;;3.20;;
10094;SDS011;5086;50.830;7.102;2023-06-26T11:54:00;6.93;;;2.80;;
10094;SDS011;5086;50.830;7.102;2023-06-26T11:56:29;4.97;;;2.50;;
10094;SDS011;5086;50.830;7.102;2023-06-26T11:58:57;7.20;;;3.00;;
10094;SDS011;5086;50.830;7.102;2023-06-26T12:01:30;8.43;;;3.13;;
10094;SDS011;5086;50.830;7.102;2023-06-26T12:04:00;8.87;;;3.30;;
10094;SDS011;5086;50.830;7.102;2023-06-26T12:06:30;2.77;;;2.57;;
10094;SDS011;5086;50.830;7.102;2023-06-26T12:09:00;11.03;;;3.00;;
10094;SDS011;5086;50.830;7.102;2023-06-26T12:11:30;4.50;;;2.63;;
10094;SDS011;5086;50.830;7.102;2023-06-26T12:14:00;7.10;;;2.90;;
10094;SDS011;5086;50.830;7.102;2023-06-26T12:16:28;15.97;;;2.83;;
10094;SDS011;5086;50.830;7.102;2023-06-26T12:18:58;8.40;;;2.70;;
10094;SDS011;5086;50.830;7.102;2023-06-26T12:21:28;4.80;;;2.83;;
10094;SDS011;5086;50.830;7.102;2023-06-26T12:24:14;5.23;;;2.60;;
10094;SDS011;5086;50.830;7.102;2023-06-26T12:26:43;7.60;;;2.97;;
10094;SDS011;5086;50.830;7.102;2023-06-26T12:29:10;10.97;;;3.27;;
10094;SDS011;5086;50.830;7.102;2023-06-26T12:31:41;11.73;;;3.23;;
10094;SDS011;5086;50.830;7.102;2023-06-26T12:34:13;8.00;;;3.13;;
10094;SDS011;5086;50.830;7.102;2023-06-26T12:36:43;5.43;;;2.80;;
10094;SDS011;5086;50.830;7.102;2023-06-26T12:39:13;4.63;;;2.63;;
10094;SDS011;5086;50.830;7.102;2023-06-26T12:41:54;6.20;;;2.77;;
10094;SDS011;5086;50.830;7.102;2023-06-26T12:44:25;9.67;;;2.60;;
10094;SDS011;5086;50.830;7.102;2023-06-26T12:46:53;5.17;;;2.73;;
10094;SDS011;5086;50.830;7.102;2023-06-26T12:49:29;4.30;;;2.30;;
10094;SDS011;5086;50.830;7.102;2023-06-26T12:51:57;4.23;;;2.73;;
10094;SDS011;5086;50.830;7.102;2023-06-26T12:54:26;5.10;;;2.70;;
10094;SDS011;5086;50.830;7.102;2023-06-26T12:56:53;4.10;;;2.50;;
10094;SDS011;5086;50.830;7.102;2023-06-26T12:59:20;6.80;;;2.80;;
10094;SDS011;5086;50.830;7.102;2023-06-26T13:01:47;8.20;;;2.60;;
10094;SDS011;5086;50.830;7.102;2023-06-26T13:04:14;6.40;;;2.73;;
10094;SDS011;5086;50.830;7.102;2023-06-26T13:06:42;4.30;;;2.80;;
10094;SDS011;5086;50.830;7.102;2023-06-26T13:09:09;3.63;;;2.80;;
10094;SDS011;5086;50.830;7.102;2023-06-26T13:11:38;8.60;;;2.77;;
10094;SDS011;5086;50.830;7.102;2023-06-26T13:14:04;4.90;;;2.10;;
10094;SDS011;5086;50.830;7.102;2023-06-26T13:16:31;5.23;;;2.87;;
10094;SDS011;5086;50.830;7.102;2023-06-26T13:18:58;9.40;;;2.63;;
10094;SDS011;5086;50.830;7.102;2023-06-26T13:21:26;5.23;;;2.40;;
10094;SDS011;5086;50.830;7.102;2023-06-26T13:23:53;6.13;;;2.37;;
10094;SDS011;5086;50.830;7.102;2023-06-26T13:26:20;6.10;;;2.30;;
10094;SDS011;5086;50.830;7.102;2023-06-26T13:28:51;2.57;;;2.00;;
10094;SDS011;5086;50.830;7.102;2023-06-26T13:31:20;3.87;;;2.53;;
10094;SDS011;5086;50.830;7.102;2023-06-26T13:33:47;5.77;;;2.00;;
10094;SDS011;5086;50.830;7.102;2023-06-26T13:36:14;3.77;;;1.77;;
10094;SDS011;5086;50.830;7.102;2023-06-26T13:38:41;7.30;;;2.10;;
10094;SDS011;5086;50.830;7.102;2023-06-26T13:41:08;2.13;;;1.70;;
10094;SDS011;5086;50.830;7.102;2023-06-26T13:43:36;3.93;;;2.20;;
10094;SDS011;5086;50.830;7.102;2023-06-26T13:46:05;11.83;;;2.73;;
10094;SDS011;5086;50.830;7.102;2023-06-26T13:48:32;2.80;;;1.83;;
10094;SDS011;5086;50.830;7.102;2023-06-26T13:50:59;4.27;;;2.03;;
10094;SDS011;5086;50.830;7.102;2023-06-26T13:53:26;2.37;;;1.60;;
10094;SDS011;5086;50.830;7.102;2023-06-26T13:55:52;4.60;;;2.20;;
10094;SDS011;5086;50.830;7.102;2023-06-26T13:58:19;4.77;;;2.20;;
10094;SDS011;5086;50.830;7.102;2023-06-26T14:00:51;9.43;;;1.80;;
10094;SDS011;5086;50.830;7.102;2023-06-26T14:03:19;16.43;;;2.80;;
10094;SDS011;5086;50.830;7.102;2023-06-26T14:05:46;4.20;;;2.00;;
10094;SDS011;5086;50.830;7.102;2023-06-26T14:08:13;2.40;;;1.70;;
10094;SDS011;5086;50.830;7.102;2023-06-26T14:10:40;2.60;;;1.93;;
10094;SDS011;5086;50.830;7.102;2023-06-26T14:13:08;3.97;;;1.93;;
10094;SDS011;5086;50.830;7.102;2023-06-26T14:15:36;2.37;;;1.90;;
10094;SDS011;5086;50.830;7.102;2023-06-26T14:18:05;3.80;;;1.90;;
10094;SDS011;5086;50.830;7.102;2023-06-26T14:20:33;2.03;;;1.70;;
10094;SDS011;5086;50.830;7.102;2023-06-26T14:23:01;2.07;;;1.70;;
10094;SDS011;5086;50.830;7.102;2023-06-26T14:25:28;2.53;;;1.70;;
10094;SDS011;5086;50.830;7.102;2023-06-26T14:27:55;11.73;;;2.43;;
10094;SDS011;5086;50.830;7.102;2023-06-26T14:30:22;3.30;;;1.70;;
10094;SDS011;5086;50.830;7.102;2023-06-26T14:32:49;3.73;;;1.40;;
10094;SDS011;5086;50.830;7.102;2023-06-26T14:35:16;5.67;;;1.97;;
10094;SDS011;5086;50.830;7.102;2023-06-26T14:37:44;6.93;;;2.17;;
10094;SDS011;5086;50.830;7.102;2023-06-26T14:40:11;6.90;;;2.10;;
10094;SDS011;5086;50.830;7.102;2023-06-26T14:42:39;3.10;;;2.03;;
10094;SDS011;5086;50.830;7.102;2023-06-26T14:45:08;4.77;;;1.70;;
10094;SDS011;5086;50.830;7.102;2023-06-26T14:47:35;5.90;;;1.50;;
10094;SDS011;5086;50.830;7.102;2023-06-26T14:50:02;3.70;;;1.73;;
10094;SDS011;5086;50.830;7.102;2023-06-26T14:52:32;10.00;;;1.70;;
10094;SDS011;5086;50.830;7.102;2023-06-26T14:55:00;3.50;;;1.80;;
10094;SDS011;5086;50.830;7.102;2023-06-26T14:57:27;4.10;;;1.90;;
10094;SDS011;5086;50.830;7.102;2023-06-26T14:59:54;2.27;;;1.70;;
10094;SDS011;5086;50.830;7.102;2023-06-26T15:02:22;3.17;;;1.60;;
10094;SDS011;5086;50.830;7.102;2023-06-26T15:04:48;5.57;;;2.00;;